Time;durP1;ratioP1;P1;durP2;ratioP2;P2;SDS_P1;SDS_P2;PMS_P1;PMS_P2;Temp;Humidity;BMP_temperature;BMP_pressure;BME280_temperature;BME280_humidity;BME280_pressure;Samples;Min_cycle;Max_cycle;Signal;HPM_P1;HPM_P2
2023/10/24 00:00:50;;;;;;;;;8.25;7.75;;;;;14.10;72.65;99882.88;5025259;28;45186;-73
2023/10/24 00:03:17;;;;;;;;;11.50;9.50;;;;;14.10;72.67;99886.34;5024496;28;46993;-73
2023/10/24 00:05:43;;;;;;;;;8.50;8.00;;;;;14.11;72.85;99882.78;5042212;28;45354;-73
2023/10/24 00:08:08;;;;;;;;;8.50;7.25;;;;;14.09;72.64;99883.78;5023541;28;51601;-73
2023/10/24 00:10:34;;;;;;;;;8.75;8.00;;;;;14.11;72.89;99874.03;5008294;28;63210;-72
2023/10/24 00:12:59;;;;;;;;;7.50;7.50;;;;;14.09;72.92;99871.47;5024678;28;46173;-74
2023/10/24 00:15:25;;;;;;;;;10.75;7.50;;;;;14.10;72.93;99867.94;5024545;28;45454;-72
2023/10/24 00:17:50;;;;;;;;;9.50;8.25;;;;;14.11;72.95;99859.13;5024882;28;45388;-72
2023/10/24 00:20:16;;;;;;;;;7.25;7.25;;;;;14.12;72.91;99860.78;5054829;28;45551;-75
2023/10/24 00:22:41;;;;;;;;;9.00;8.50;;;;;14.10;72.81;99853.94;5033190;28;47399;-73
2023/10/24 00:25:07;;;;;;;;;12.25;10.00;;;;;14.13;72.87;99861.63;5010024;28;45292;-73
2023/10/24 00:27:32;;;;;;;;;10.00;9.00;;;;;14.14;72.71;99858.91;5007766;28;45356;-73
2023/10/24 00:29:58;;;;;;;;;10.00;9.00;;;;;14.12;73.17;99859.94;5053609;28;63614;-73
2023/10/24 00:32:23;;;;;;;;;10.75;8.00;;;;;14.14;72.79;99873.88;5032203;28;75054;-73
2023/10/24 00:34:48;;;;;;;;;8.75;8.25;;;;;14.11;73.03;99861.75;5023315;28;66696;-73
2023/10/24 00:37:14;;;;;;;;;12.25;9.75;;;;;14.13;72.63;99867.75;5024236;28;45453;-72
2023/10/24 00:39:39;;;;;;;;;15.75;10.25;;;;;14.11;72.94;99869.63;5021565;28;56276;-73
2023/10/24 00:42:05;;;;;;;;;13.00;7.50;;;;;14.11;73.10;99871.41;5023240;28;48466;-73
2023/10/24 00:44:32;;;;;;;;;13.25;7.50;;;;;14.10;72.98;99861.81;5042245;28;45286;-73
2023/10/24 00:46:57;;;;;;;;;10.00;10.00;;;;;14.11;73.04;99868.78;5027806;28;45475;-73
2023/10/24 00:49:23;;;;;;;;;12.50;10.00;;;;;14.06;73.17;99853.25;5032039;28;62504;-73
2023/10/24 00:51:49;;;;;;;;;11.75;10.00;;;;;14.13;73.30;99870.41;5024713;28;74975;-73
2023/10/24 00:54:14;;;;;;;;;12.50;9.75;;;;;14.13;72.82;99870.41;5041399;28;62672;-73
2023/10/24 00:56:43;;;;;;;;;8.50;8.50;;;;;14.13;73.29;99864.25;5027555;28;45547;-73
2023/10/24 00:59:09;;;;;;;;;15.50;12.25;;;;;14.13;73.08;99864.25;5054885;28;45415;-72
2023/10/24 01:01:34;;;;;;;;;11.75;9.50;;;;;14.14;73.36;99855.44;5020492;28;45293;-73
2023/10/24 01:04:00;;;;;;;;;12.50;10.25;;;;;14.14;73.24;99852.81;5036108;28;48379;-74
2023/10/24 01:06:26;;;;;;;;;13.25;12.50;;;;;14.11;73.36;99850.34;5024377;28;45484;-73
2023/10/24 01:08:51;;;;;;;;;12.50;12.00;;;;;14.12;72.86;99849.44;5030462;28;45543;-73
2023/10/24 01:11:18;;;;;;;;;11.00;9.25;;;;;14.15;73.34;99849.25;5042914;28;46454;-71
2023/10/24 01:13:44;;;;;;;;;12.25;9.75;;;;;14.14;73.34;99842.28;5023104;28;45503;-73
2023/10/24 01:16:09;;;;;;;;;15.00;12.50;;;;;14.14;73.56;99837.03;5041520;28;45386;-73
2023/10/24 01:18:35;;;;;;;;;9.00;7.50;;;;;14.18;73.69;99849.06;5040684;28;45504;-73
2023/10/24 01:21:00;;;;;;;;;10.75;10.75;;;;;14.18;73.63;99852.56;5023611;28;45809;-72
2023/10/24 01:23:28;;;;;;;;;12.50;11.50;;;;;14.17;73.61;99852.66;5006783;28;45364;-72
2023/10/24 01:25:55;;;;;;;;;10.25;10.25;;;;;14.19;73.62;99846.34;5041239;28;45490;-73
2023/10/24 01:28:21;;;;;;;;;15.25;11.00;;;;;14.19;73.81;99854.25;5024461;28;45437;-73
2023/10/24 01:30:46;;;;;;;;;14.75;11.75;;;;;14.20;73.32;99850.69;5029261;28;72723;-73
2023/10/24 01:33:11;;;;;;;;;12.25;12.25;;;;;14.19;73.49;99851.63;5023062;28;51055;-72
2023/10/24 01:35:37;;;;;;;;;18.25;13.50;;;;;14.24;73.70;99864.53;5023533;28;51410;-72
2023/10/24 01:38:02;;;;;;;;;11.75;10.00;;;;;14.26;73.62;99867.91;5039937;28;45463;-73
2023/10/24 01:40:28;;;;;;;;;11.00;10.75;;;;;14.26;73.72;99861.81;5051523;28;47684;-73
2023/10/24 01:42:53;;;;;;;;;14.00;10.75;;;;;14.30;73.68;99863.31;5023087;28;45473;-72
2023/10/24 01:45:20;;;;;;;;;14.75;12.00;;;;;14.30;73.48;99860.69;5040320;28;69286;-73
2023/10/24 01:47:45;;;;;;;;;16.00;13.25;;;;;14.30;73.43;99848.38;5013751;28;45478;-74
2023/10/24 01:50:11;;;;;;;;;14.00;11.00;;;;;14.27;73.49;99838.03;5033286;28;46568;-72
2023/10/24 01:52:36;;;;;;;;;15.50;13.00;;;;;14.31;73.59;99849.25;5022554;28;45269;-73
2023/10/24 01:55:01;;;;;;;;;13.50;11.00;;;;;14.28;73.68;99839.72;5040449;28;61592;-71
2023/10/24 01:57:27;;;;;;;;;11.00;10.00;;;;;14.27;73.63;99834.53;5023622;28;45555;-73
2023/10/24 01:59:52;;;;;;;;;15.50;13.75;;;;;14.31;73.52;99847.47;5050878;28;45391;-73
2023/10/24 02:02:18;;;;;;;;;13.50;10.75;;;;;14.31;73.74;99844.81;5005234;28;62470;-72
2023/10/24 02:04:43;;;;;;;;;13.50;11.75;;;;;14.31;73.47;99844.81;5022450;28;51778;-73
2023/10/24 02:07:09;;;;;;;;;13.50;9.50;;;;;14.29;73.81;99832.66;5040595;28;45252;-74
2023/10/24 02:09:34;;;;;;;;;14.25;11.00;;;;;14.30;74.13;99834.38;5023862;28;46375;-72
2023/10/24 02:12:03;;;;;;;;;14.25;11.75;;;;;14.30;73.54;99827.31;5022588;28;45328;-72
2023/10/24 02:14:29;;;;;;;;;14.50;13.50;;;;;14.31;73.81;99836.09;5023241;28;45375;-73
2023/10/24 02:16:55;;;;;;;;;10.75;10.25;;;;;14.32;73.94;99830.72;5034406;28;45343;-73
2023/10/24 02:19:20;;;;;;;;;17.00;11.00;;;;;14.33;73.97;99829.78;5030813;28;47098;-75
2023/10/24 02:21:45;;;;;;;;;12.75;11.75;;;;;14.35;74.04;99827.91;5030003;28;45263;-73
2023/10/24 02:24:11;;;;;;;;;10.00;9.75;;;;;14.34;74.02;99831.50;5025052;28;52492;-73
2023/10/24 02:26:36;;;;;;;;;12.50;12.25;;;;;14.37;73.86;99833.09;5021854;28;62283;-74
2023/10/24 02:29:02;;;;;;;;;11.50;11.00;;;;;14.38;73.88;99833.00;5039395;28;45292;-72
2023/10/24 02:31:27;;;;;;;;;14.00;11.75;;;;;14.39;74.01;99833.84;5027302;28;45321;-73
2023/10/24 02:33:53;;;;;;;;;13.25;10.50;;;;;14.37;73.76;99827.81;5022037;28;57463;-73
2023/10/24 02:36:18;;;;;;;;;12.25;10.00;;;;;14.36;74.36;99831.38;5038601;28;64032;-73
2023/10/24 02:38:43;;;;;;;;;17.00;13.00;;;;;14.35;74.11;99833.19;5043251;28;58847;-72
2023/10/24 02:41:09;;;;;;;;;10.75;9.75;;;;;14.40;74.03;99832.94;5040587;28;45209;-73
2023/10/24 02:43:34;;;;;;;;;13.75;10.50;;;;;14.40;73.81;99822.41;5039971;28;59438;-72
2023/10/24 02:46:04;;;;;;;;;12.00;9.75;;;;;14.41;74.36;99827.56;5044097;28;62829;-72
2023/10/24 02:48:29;;;;;;;;;12.25;9.00;;;;;14.39;74.17;99826.78;5043170;28;46312;-72
2023/10/24 02:50:55;;;;;;;;;11.75;11.75;;;;;14.38;74.23;99826.91;5022560;28;45512;-73
2023/10/24 02:53:21;;;;;;;;;13.50;11.00;;;;;14.37;74.34;99819.94;5022476;28;45320;-73
2023/10/24 02:55:47;;;;;;;;;14.75;10.75;;;;;14.36;74.11;99818.22;5039765;28;45282;-73
2023/10/24 02:58:13;;;;;;;;;13.00;10.00;;;;;14.38;74.63;99819.84;5023818;28;46241;-73
2023/10/24 03:00:39;;;;;;;;;12.50;10.00;;;;;14.39;74.21;99818.91;5012546;28;45679;-73
2023/10/24 03:03:04;;;;;;;;;14.00;9.75;;;;;14.41;74.12;99827.56;5035088;28;45217;-74
2023/10/24 03:05:30;;;;;;;;;14.00;12.00;;;;;14.42;74.15;99816.09;5005200;28;45611;-72
2023/10/24 03:07:55;;;;;;;;;14.25;10.00;;;;;14.43;74.36;99815.16;5021239;28;75687;-73
2023/10/24 03:10:21;;;;;;;;;12.50;10.75;;;;;14.44;74.51;99816.00;5026568;28;66617;-72
2023/10/24 03:12:47;;;;;;;;;13.50;10.25;;;;;14.42;74.24;99808.19;5026114;28;45313;-72
2023/10/24 03:15:12;;;;;;;;;12.00;7.00;;;;;14.43;74.45;99812.53;5018164;28;52309;-73
2023/10/24 03:17:37;;;;;;;;;7.75;7.75;;;;;14.43;74.47;99812.53;5028241;28;66594;-73
2023/10/24 03:20:05;;;;;;;;;9.00;9.00;;;;;14.43;74.53;99814.34;5024079;28;67348;-73
2023/10/24 03:22:31;;;;;;;;;7.75;6.25;;;;;14.44;74.75;99810.75;5022066;28;45352;-73
2023/10/24 03:24:56;;;;;;;;;8.75;7.00;;;;;14.41;74.71;99810.91;5039563;28;45321;-72
2023/10/24 03:27:22;;;;;;;;;8.75;7.00;;;;;14.42;74.34;99810.81;5021520;28;46226;-73
2023/10/24 03:29:47;;;;;;;;;10.25;9.00;;;;;14.39;74.79;99804.88;5021445;28;67578;-73
2023/10/24 03:32:13;;;;;;;;;8.25;8.00;;;;;14.40;74.96;99812.72;5011714;28;45234;-72
2023/10/24 03:34:39;;;;;;;;;9.25;8.00;;;;;14.36;74.79;99811.19;5015571;28;45316;-72
2023/10/24 03:37:04;;;;;;;;;10.00;8.00;;;;;14.35;74.64;99816.53;5027402;28;45932;-73
2023/10/24 03:39:29;;;;;;;;;9.50;8.00;;;;;14.36;75.21;99823.47;5011491;28;62024;-73
2023/10/24 03:41:55;;;;;;;;;5.00;5.00;;;;;14.34;75.04;99818.34;5020378;28;58101;-72
2023/10/24 03:44:22;;;;;;;;;7.25;6.50;;;;;14.35;74.86;99813.91;5004588;28;45963;-71
2023/10/24 03:46:47;;;;;;;;;7.50;6.50;;;;;14.38;75.05;99822.47;5021494;28;45609;-72
2023/10/24 03:49:13;;;;;;;;;7.75;5.25;;;;;14.36;75.38;99812.97;5026134;28;45507;-73
2023/10/24 03:51:38;;;;;;;;;9.00;5.75;;;;;14.38;75.32;99821.66;5020416;28;68823;-73
2023/10/24 03:54:04;;;;;;;;;8.00;7.00;;;;;14.37;75.60;99818.13;5020649;28;67441;-73
2023/10/24 03:56:29;;;;;;;;;8.00;7.00;;;;;14.35;75.26;99817.38;5021214;28;45394;-72
2023/10/24 03:58:55;;;;;;;;;6.25;5.00;;;;;14.35;75.27;99813.91;5039750;28;45514;-72
2023/10/24 04:01:20;;;;;;;;;5.75;5.50;;;;;14.34;75.97;99810.44;5021495;28;45674;-72
2023/10/24 04:03:45;;;;;;;;;7.50;4.00;;;;;14.28;75.76;99809.94;5038952;28;50778;-71
2023/10/24 04:06:11;;;;;;;;;4.25;4.25;;;;;14.27;75.45;99817.00;5041234;28;59454;-72
2023/10/24 04:08:37;;;;;;;;;9.00;5.00;;;;;14.28;75.69;99818.66;5042408;28;45525;-72
2023/10/24 04:11:03;;;;;;;;;7.50;6.00;;;;;14.31;76.04;99818.50;5013873;28;45402;-72
2023/10/24 04:13:29;;;;;;;;;8.00;4.00;;;;;14.30;75.66;99821.22;5021208;28;45598;-72
2023/10/24 04:15:58;;;;;;;;;5.50;5.50;;;;;14.31;75.87;99817.66;5024450;28;46290;-72
2023/10/24 04:18:23;;;;;;;;;11.00;6.50;;;;;14.32;76.01;99819.34;5023754;28;45659;-72
2023/10/24 04:20:49;;;;;;;;;7.75;5.25;;;;;14.32;75.59;99812.28;5023921;28;61004;-72
2023/10/24 04:23:15;;;;;;;;;7.00;6.50;;;;;14.34;75.74;99815.72;5045088;28;45363;-72
2023/10/24 04:25:40;;;;;;;;;7.25;5.00;;;;;14.35;75.80;99816.53;5042025;28;46066;-72
2023/10/24 04:28:05;;;;;;;;;5.75;5.75;;;;;14.33;75.99;99811.38;5029498;28;45533;-72
2023/10/24 04:30:31;;;;;;;;;6.00;5.50;;;;;14.31;76.07;99812.41;5049628;28;64868;-72
2023/10/24 04:32:56;;;;;;;;;5.00;4.00;;;;;14.34;76.16;99817.47;5041754;28;51433;-72
2023/10/24 04:35:22;;;;;;;;;4.50;4.50;;;;;14.36;76.23;99819.09;5031238;28;53580;-72
2023/10/24 04:37:47;;;;;;;;;6.00;5.75;;;;;14.33;76.01;99811.38;5030559;28;54772;-72
2023/10/24 04:40:13;;;;;;;;;5.75;4.75;;;;;14.35;76.39;99814.75;5009002;28;45250;-73
2023/10/24 04:42:39;;;;;;;;;6.25;4.50;;;;;14.34;76.12;99805.19;5030679;28;45221;-72
2023/10/24 04:45:05;;;;;;;;;6.25;5.00;;;;;14.34;76.01;99807.81;5007415;28;46681;-72
2023/10/24 04:47:30;;;;;;;;;8.00;5.75;;;;;14.36;76.28;99812.97;5024147;28;45362;-72
2023/10/24 04:49:55;;;;;;;;;4.25;4.00;;;;;14.32;76.67;99806.19;5007399;28;48351;-72
2023/10/24 04:52:20;;;;;;;;;6.25;6.00;;;;;14.33;76.56;99821.06;5023685;28;45577;-72
2023/10/24 04:54:46;;;;;;;;;5.00;4.25;;;;;14.32;76.09;99811.44;5005743;28;63502;-73
2023/10/24 04:57:12;;;;;;;;;5.50;5.00;;;;;14.32;76.41;99806.19;5051169;28;45572;-72
2023/10/24 04:59:37;;;;;;;;;6.00;4.25;;;;;14.35;76.62;99804.22;5024175;28;45477;-72
2023/10/24 05:02:03;;;;;;;;;4.75;3.00;;;;;14.33;76.48;99786.84;5042553;28;45534;-72
2023/10/24 05:04:29;;;;;;;;;4.00;4.00;;;;;14.37;76.66;99797.09;5040862;28;45533;-72
2023/10/24 05:06:55;;;;;;;;;2.00;2.00;;;;;14.38;76.44;99806.69;5027148;28;45319;-72
2023/10/24 05:09:21;;;;;;;;;6.25;4.50;;;;;14.36;76.34;99802.44;5023312;28;45358;-72
2023/10/24 05:11:47;;;;;;;;;4.75;4.75;;;;;14.38;76.17;99806.69;5036060;28;45310;-72
2023/10/24 05:14:13;;;;;;;;;4.00;3.00;;;;;14.37;76.14;99804.97;5041652;28;46135;-72
2023/10/24 05:16:38;;;;;;;;;6.00;5.25;;;;;14.38;76.44;99809.31;5041390;28;45226;-72
2023/10/24 05:19:05;;;;;;;;;3.75;3.00;;;;;14.39;76.17;99812.78;5030780;28;45359;-73
2023/10/24 05:21:31;;;;;;;;;3.00;3.00;;;;;14.40;76.11;99809.22;5015924;28;45257;-72
2023/10/24 05:23:56;;;;;;;;;7.25;4.00;;;;;14.36;76.29;99800.66;5041210;28;45488;-73
2023/10/24 05:26:21;;;;;;;;;5.00;5.00;;;;;14.36;76.55;99795.41;5039986;28;45323;-72
2023/10/24 05:28:47;;;;;;;;;3.00;3.00;;;;;14.36;76.47;99798.03;5029533;28;45650;-73
2023/10/24 05:31:12;;;;;;;;;4.25;4.25;;;;;14.34;76.66;99799.03;5029259;28;45339;-76
2023/10/24 05:33:38;;;;;;;;;4.75;4.00;;;;;14.33;76.54;99808.72;5035850;28;57426;-71
2023/10/24 05:36:04;;;;;;;;;6.00;5.00;;;;;14.31;76.65;99800.09;5022356;28;45773;-71
2023/10/24 05:38:32;;;;;;;;;3.50;3.50;;;;;14.34;76.54;99797.28;5022995;28;45365;-69
2023/10/24 05:40:57;;;;;;;;;5.00;4.00;;;;;14.31;76.44;99797.44;5023018;28;45531;-70
2023/10/24 05:43:23;;;;;;;;;5.00;4.00;;;;;14.30;76.80;99789.63;5037508;28;65636;-70
2023/10/24 05:45:48;;;;;;;;;7.25;5.00;;;;;14.29;76.56;99780.03;5024406;28;45503;-70
2023/10/24 05:48:14;;;;;;;;;5.50;4.75;;;;;14.33;76.34;99778.94;5039982;28;69458;-71
2023/10/24 05:50:39;;;;;;;;;4.75;4.00;;;;;14.34;76.45;99778.00;5039738;28;70179;-70
2023/10/24 05:53:04;;;;;;;;;8.00;5.50;;;;;14.29;76.23;99786.16;5032182;28;47046;-71
2023/10/24 05:55:30;;;;;;;;;7.00;5.25;;;;;14.28;76.84;99792.34;5021263;28;45670;-70
2023/10/24 05:57:55;;;;;;;;;5.00;4.25;;;;;14.27;76.95;99805.59;5035056;28;62306;-72
2023/10/24 06:00:20;;;;;;;;;7.25;5.00;;;;;14.29;76.75;99809.84;5019013;28;68856;-69
2023/10/24 06:02:46;;;;;;;;;8.75;6.00;;;;;14.26;76.39;99798.66;5021392;28;48576;-71
2023/10/24 06:05:11;;;;;;;;;8.50;6.00;;;;;14.32;76.97;99801.75;5021739;28;47071;-69
2023/10/24 06:07:36;;;;;;;;;8.00;5.00;;;;;14.33;76.94;99802.63;5054862;28;45400;-70
2023/10/24 06:10:03;;;;;;;;;7.25;5.00;;;;;14.35;76.89;99813.91;5039414;28;63507;-69
2023/10/24 06:12:29;;;;;;;;;4.50;4.50;;;;;14.35;76.84;99817.38;5036255;28;46183;-70
2023/10/24 06:14:54;;;;;;;;;7.00;4.00;;;;;14.37;76.38;99818.13;5022494;28;45351;-73
2023/10/24 06:17:20;;;;;;;;;5.00;4.50;;;;;14.35;76.11;99817.38;5019086;28;45563;-71
2023/10/24 06:19:48;;;;;;;;;7.75;6.25;;;;;14.41;76.47;99816.19;5044115;28;47037;-72
2023/10/24 06:22:14;;;;;;;;;5.50;4.75;;;;;14.39;76.54;99826.78;5021935;28;47160;-71
2023/10/24 06:24:39;;;;;;;;;3.25;2.50;;;;;14.42;75.71;99831.88;5010948;28;45465;-72
2023/10/24 06:27:05;;;;;;;;;6.50;5.25;;;;;14.42;76.45;99834.53;5020847;28;45400;-71
2023/10/24 06:29:31;;;;;;;;;6.25;5.00;;;;;14.43;75.77;99840.66;5025749;28;58429;-71
2023/10/24 06:31:57;;;;;;;;;6.00;4.00;;;;;14.42;75.68;99842.41;5049457;28;45998;-71
2023/10/24 06:34:22;;;;;;;;;5.00;5.00;;;;;14.42;76.11;99834.53;5030217;28;45430;-71
2023/10/24 06:36:47;;;;;;;;;4.50;4.50;;;;;14.43;75.49;99836.22;5039523;28;58011;-71
2023/10/24 06:39:13;;;;;;;;;6.00;6.00;;;;;14.43;75.82;99833.59;5020701;28;55880;-73
2023/10/24 06:41:38;;;;;;;;;6.50;4.00;;;;;14.39;75.59;99847.00;5004365;28;47214;-73
2023/10/24 06:44:04;;;;;;;;;6.00;5.00;;;;;14.36;75.41;99845.41;5002629;28;50426;-73
2023/10/24 06:46:29;;;;;;;;;8.50;6.25;;;;;14.36;75.60;99852.44;5022729;28;45534;-73
2023/10/24 06:48:54;;;;;;;;;4.00;4.00;;;;;14.33;75.39;99848.22;5039763;28;45388;-73
2023/10/24 06:51:19;;;;;;;;;5.75;5.75;;;;;14.33;75.47;99847.38;5037278;28;68501;-73
2023/10/24 06:53:45;;;;;;;;;8.50;6.00;;;;;14.31;75.12;99852.72;5021881;28;55764;-73
2023/10/24 06:56:10;;;;;;;;;5.75;5.75;;;;;14.32;75.20;99858.81;5003136;28;62691;-73
2023/10/24 06:58:37;;;;;;;;;4.25;4.25;;;;;14.31;74.99;99854.50;5014715;28;60456;-77
2023/10/24 07:01:02;;;;;;;;;9.25;5.75;;;;;14.29;75.01;99859.84;4999401;28;45546;-77
2023/10/24 07:03:28;;;;;;;;;5.00;5.00;;;;;14.32;75.08;99858.81;4997638;28;45525;-73
2023/10/24 07:05:54;;;;;;;;;5.50;5.50;;;;;14.32;74.80;99864.94;4998420;28;45258;-73
2023/10/24 07:08:20;;;;;;;;;8.25;6.00;;;;;14.31;74.92;99870.31;4998134;28;45308;-72
2023/10/24 07:10:46;;;;;;;;;8.25;5.25;;;;;14.30;74.92;99873.84;4997304;28;45814;-74
2023/10/24 07:13:12;;;;;;;;;6.50;6.00;;;;;14.28;75.23;99881.00;4992564;28;45449;-72
2023/10/24 07:15:38;;;;;;;;;8.50;6.00;;;;;14.23;74.65;99887.34;4998990;28;45583;-73
2023/10/24 07:18:04;;;;;;;;;8.00;6.50;;;;;14.20;74.76;99890.16;4980727;28;45458;-75
2023/10/24 07:20:29;;;;;;;;;9.50;6.00;;;;;14.18;74.70;99892.03;4997785;28;45431;-75
2023/10/24 07:22:55;;;;;;;;;5.25;5.25;;;;;14.15;74.21;99897.47;4997062;28;67500;-69
2023/10/24 07:25:20;;;;;;;;;4.00;4.00;;;;;14.10;74.54;99899.50;4997803;28;56224;-71
2023/10/24 07:27:46;;;;;;;;;5.75;4.50;;;;;14.08;74.22;99903.13;5001331;28;69828;-71
2023/10/24 07:30:11;;;;;;;;;5.50;3.25;;;;;14.09;74.40;99907.47;5001176;28;46083;-73
2023/10/24 07:32:37;;;;;;;;;4.50;4.50;;;;;14.07;74.66;99914.59;4992840;28;45762;-76
2023/10/24 07:35:03;;;;;;;;;7.25;4.50;;;;;14.01;74.29;99900.84;4996779;28;45485;-73
2023/10/24 07:37:29;;;;;;;;;2.75;2.75;;;;;13.99;73.85;99905.34;4998958;28;45318;-71
2023/10/24 07:39:54;;;;;;;;;6.00;4.00;;;;;13.97;73.85;99898.47;4999471;28;46054;-71
2023/10/24 07:42:19;;;;;;;;;4.25;2.75;;;;;13.94;73.68;99907.38;4998738;28;45420;-71
2023/10/24 07:44:45;;;;;;;;;3.75;2.50;;;;;13.93;73.83;99905.66;5008383;28;45291;-70
2023/10/24 07:47:10;;;;;;;;;2.00;2.00;;;;;13.91;73.89;99899.66;4998703;28;66676;-71
2023/10/24 07:49:36;;;;;;;;;2.75;2.00;;;;;13.93;73.91;99902.19;4999465;28;50998;-70
2023/10/24 07:52:03;;;;;;;;;5.50;4.00;;;;;13.91;73.68;99899.66;5002116;28;45520;-70
2023/10/24 07:54:29;;;;;;;;;2.00;2.00;;;;;13.91;73.17;99907.53;4993192;28;45394;-70
2023/10/24 07:56:54;;;;;;;;;4.50;4.00;;;;;13.91;73.49;99914.59;4998870;28;45527;-73
2023/10/24 07:59:19;;;;;;;;;4.25;3.00;;;;;13.88;72.99;99910.31;5014717;28;66885;-70
2023/10/24 08:01:45;;;;;;;;;4.25;1.75;;;;;13.87;73.33;99906.00;5019965;28;45516;-72
2023/10/24 08:04:10;;;;;;;;;3.00;1.50;;;;;13.90;72.99;99907.63;5044326;28;62501;-72
2023/10/24 08:06:35;;;;;;;;;2.25;1.75;;;;;13.88;72.69;99905.06;5055016;28;63503;-73
2023/10/24 08:09:01;;;;;;;;;5.00;1.25;;;;;13.87;72.48;99906.00;5026267;28;56939;-73
2023/10/24 08:11:26;;;;;;;;;5.00;2.00;;;;;13.87;72.82;99908.66;5025072;28;64719;-73
2023/10/24 08:13:51;;;;;;;;;2.00;1.00;;;;;13.87;71.91;99906.00;5011517;28;45487;-73
2023/10/24 08:16:17;;;;;;;;;2.50;1.00;;;;;13.87;72.40;99908.66;5046220;28;72561;-73
2023/10/24 08:18:44;;;;;;;;;3.50;1.00;;;;;13.90;72.08;99918.13;5025332;28;45469;-74
2023/10/24 08:21:10;;;;;;;;;3.00;2.00;;;;;13.92;72.16;99917.16;5046593;28;45743;-71
2023/10/24 08:23:35;;;;;;;;;1.50;1.25;;;;;13.94;71.45;99923.16;5040678;28;45475;-73
2023/10/24 08:26:00;;;;;;;;;1.00;1.00;;;;;13.92;71.68;99911.88;5029687;28;47001;-71
2023/10/24 08:28:26;;;;;;;;;2.00;2.00;;;;;13.94;71.44;99922.31;5022824;28;47096;-72
2023/10/24 08:30:52;;;;;;;;;3.00;1.25;;;;;13.97;71.90;99925.63;5040405;28;45324;-70
2023/10/24 08:33:19;;;;;;;;;3.50;2.00;;;;;13.99;71.21;99931.66;5045047;28;45641;-72
2023/10/24 08:35:45;;;;;;;;;5.00;1.50;;;;;14.00;70.01;99920.19;5041661;28;45403;-72
2023/10/24 08:38:10;;;;;;;;;4.00;1.00;;;;;13.99;70.46;99920.28;5035400;28;55391;-71
2023/10/24 08:40:36;;;;;;;;;1.50;1.50;;;;;14.01;71.09;99921.06;5050969;28;45613;-70
2023/10/24 08:43:02;;;;;;;;;3.75;2.00;;;;;14.04;70.55;99923.50;5025342;28;45380;-73
2023/10/24 08:45:28;;;;;;;;;2.50;2.00;;;;;14.10;70.93;99927.59;5024069;28;45544;-72
2023/10/24 08:47:55;;;;;;;;;3.00;1.75;;;;;14.13;70.47;99927.41;5051473;28;46276;-70
2023/10/24 08:50:20;;;;;;;;;4.25;1.50;;;;;14.15;68.94;99928.19;5023529;28;48061;-70
2023/10/24 08:52:45;;;;;;;;;2.50;1.50;;;;;14.17;69.55;99931.59;5032801;28;45324;-71
2023/10/24 08:55:11;;;;;;;;;2.75;2.00;;;;;14.21;69.52;99925.22;5024254;28;70648;-70
2023/10/24 08:57:41;;;;;;;;;6.25;4.00;;;;;14.24;69.06;99933.78;5042325;28;46045;-69
2023/10/24 09:00:11;;;;;;;;;1.50;1.50;;;;;14.29;69.14;99930.03;5023487;28;45418;-69
2023/10/24 09:02:38;;;;;;;;;5.75;2.00;;;;;14.32;69.25;99927.25;5029662;28;45415;-70
2023/10/24 09:05:05;;;;;;;;;1.25;1.25;;;;;14.36;69.69;99928.78;5041000;28;45691;-70
2023/10/24 09:07:30;;;;;;;;;3.25;2.00;;;;;14.40;69.39;99936.44;5010158;28;47271;-71
2023/10/24 09:09:55;;;;;;;;;0.00;0.00;;;;;14.43;68.07;99938.91;5022841;28;62305;-70
2023/10/24 09:12:21;;;;;;;;;4.25;2.50;;;;;14.49;68.48;99935.06;5021696;28;45412;-71
2023/10/24 09:14:48;;;;;;;;;5.00;2.00;;;;;14.56;68.64;99940.84;5043723;28;45431;-70
2023/10/24 09:17:17;;;;;;;;;3.00;2.00;;;;;14.61;68.58;99944.09;5028841;28;47289;-69
2023/10/24 09:19:43;;;;;;;;;4.00;2.00;;;;;14.65;68.28;99935.06;5026918;28;46112;-70
2023/10/24 09:22:09;;;;;;;;;3.00;2.00;;;;;14.70;68.38;99940.94;5049156;28;45460;-69
2023/10/24 09:24:37;;;;;;;;;1.50;0.75;;;;;14.75;68.20;99944.16;5026503;28;45505;-70
2023/10/24 09:27:03;;;;;;;;;2.25;2.00;;;;;14.81;66.45;99949.06;5047798;28;45435;-72
2023/10/24 09:29:31;;;;;;;;;4.00;3.00;;;;;14.88;67.48;99954.84;5023051;28;45193;-71
2023/10/24 09:31:59;;;;;;;;;3.00;2.00;;;;;14.92;67.43;99944.97;5026259;28;45265;-70
2023/10/24 09:34:26;;;;;;;;;1.00;1.00;;;;;15.00;67.66;99948.03;5028995;28;45383;-70
2023/10/24 09:36:52;;;;;;;;;4.25;2.00;;;;;15.10;66.57;99950.94;5040295;28;45562;-69
2023/10/24 09:39:17;;;;;;;;;2.75;2.00;;;;;15.16;66.62;99945.34;5022274;28;45459;-70
2023/10/24 09:41:44;;;;;;;;;4.00;1.75;;;;;15.26;66.56;99953.53;5040809;28;57072;-70
2023/10/24 09:44:09;;;;;;;;;3.25;2.00;;;;;15.31;66.60;99952.31;5021680;28;45520;-70
2023/10/24 09:46:36;;;;;;;;;3.25;2.25;;;;;15.41;66.66;99950.00;5011899;28;48263;-70
2023/10/24 09:49:02;;;;;;;;;2.25;1.75;;;;;15.49;66.45;99954.81;5044156;28;45645;-71
2023/10/24 09:51:28;;;;;;;;;2.75;2.00;;;;;15.55;65.62;99951.81;5040687;28;45329;-69
2023/10/24 09:53:53;;;;;;;;;5.25;1.75;;;;;15.63;65.80;99949.53;5021622;28;63110;-70
2023/10/24 09:56:20;;;;;;;;;2.00;1.50;;;;;15.68;64.33;99941.34;5045553;28;45497;-70
2023/10/24 09:58:46;;;;;;;;;3.00;1.75;;;;;15.75;64.46;99945.34;5007609;28;45327;-69
2023/10/24 10:01:12;;;;;;;;;1.00;1.00;;;;;15.82;64.74;99945.81;5034270;28;45341;-71
2023/10/24 10:03:37;;;;;;;;;3.00;1.25;;;;;15.88;64.60;99950.72;5023824;28;45492;-71
2023/10/24 10:06:08;;;;;;;;;2.75;2.00;;;;;16.01;64.17;99950.81;5018762;28;61503;-76
2023/10/24 10:08:36;;;;;;;;;3.50;1.00;;;;;16.06;63.19;99952.22;5007744;28;45376;-71
2023/10/24 10:11:05;;;;;;;;;3.25;1.50;;;;;16.09;63.00;99957.28;5040982;28;45451;-71
2023/10/24 10:13:35;;;;;;;;;4.00;1.75;;;;;16.09;63.46;99944.09;5007704;28;45800;-71
2023/10/24 10:16:26;;;;;;;;;1.75;1.75;;;;;16.22;63.21;99952.13;5040841;28;45439;-71
2023/10/24 10:19:09;;;;;;;;;3.75;3.00;;;;;16.28;63.14;99950.88;5040899;28;45581;-72
2023/10/24 10:22:10;;;;;;;;;4.50;1.25;;;;;16.33;62.03;99947.00;5027849;28;45273;-72
2023/10/24 10:25:13;;;;;;;;;4.50;2.25;;;;;16.34;61.02;99955.75;5040806;28;45389;-71
2023/10/24 10:28:11;;;;;;;;;1.75;1.50;;;;;16.36;61.29;99953.88;5022713;28;47494;-72
2023/10/24 10:30:41;;;;;;;;;4.00;2.50;;;;;16.37;61.31;99950.28;5031531;28;45665;-71
2023/10/24 10:33:15;;;;;;;;;3.00;0.50;;;;;16.42;60.09;99950.84;5028955;28;46417;-71
2023/10/24 10:35:47;;;;;;;;;2.50;0.50;;;;;16.49;61.04;99944.22;5020746;28;45633;-72
2023/10/24 10:38:12;;;;;;;;;3.50;2.00;;;;;16.53;60.91;99950.16;5036898;28;47322;-69
2023/10/24 10:40:37;;;;;;;;;3.00;1.25;;;;;16.61;60.47;99945.22;5032897;28;66871;-73
2023/10/24 10:43:03;;;;;;;;;2.25;2.25;;;;;16.69;60.87;99945.56;5037219;28;63900;-72
2023/10/24 10:45:30;;;;;;;;;3.50;2.75;;;;;16.78;59.17;99946.75;5031598;28;45557;-70
2023/10/24 10:48:01;;;;;;;;;2.00;1.50;;;;;16.94;60.36;99943.97;5021948;28;46319;-73
2023/10/24 10:50:34;;;;;;;;;4.50;2.75;;;;;17.07;58.90;99942.22;5030777;28;45344;-71
2023/10/24 10:53:24;;;;;;;;;2.00;2.00;;;;;17.23;58.00;99938.56;5023024;28;45535;-72
2023/10/24 10:56:20;;;;;;;;;2.25;1.25;;;;;17.28;57.85;99939.06;5038711;28;45301;-76
2023/10/24 10:58:54;;;;;;;;;2.50;1.00;;;;;17.22;58.04;99929.75;5033109;28;45344;-74
2023/10/24 11:01:36;;;;;;;;;3.75;2.00;;;;;17.17;58.55;99933.66;5040076;28;45237;-73
2023/10/24 11:04:02;;;;;;;;;2.00;1.00;;;;;17.17;57.45;99925.75;5039595;28;45368;-72
2023/10/24 11:06:28;;;;;;;;;2.75;1.00;;;;;17.19;57.85;99932.63;5038827;28;54407;-73
2023/10/24 11:09:10;;;;;;;;;0.50;0.50;;;;;17.14;58.44;99929.44;5022191;28;45412;-74
2023/10/24 11:11:37;;;;;;;;;2.00;1.50;;;;;17.12;56.64;99931.31;5039069;28;45315;-74
2023/10/24 11:14:21;;;;;;;;;2.00;1.75;;;;;17.10;57.53;99940.31;5038128;28;45439;-72
2023/10/24 11:16:50;;;;;;;;;2.25;2.00;;;;;17.17;57.36;99938.97;5020041;28;45534;-74
2023/10/24 11:19:24;;;;;;;;;3.75;2.75;;;;;17.25;56.36;99942.78;5005306;28;48426;-74
2023/10/24 11:21:52;;;;;;;;;4.00;3.75;;;;;17.33;57.91;99936.13;5021381;28;45951;-74
2023/10/24 11:24:21;;;;;;;;;3.00;3.00;;;;;17.37;57.52;99927.88;5014158;28;45377;-74
2023/10/24 11:26:48;;;;;;;;;3.75;2.00;;;;;17.42;55.66;99925.78;5052959;28;45427;-73